sensor_id;sensor_type;location;lat;lon;timestamp;P1;durP1;ratioP1;P2;durP2;ratioP2
19278;SDS011;9773;47.062;15.446;2022-11-15T00:01:00;55.20;;;28.27;;
19278;SDS011;9773;47.062;15.446;2022-11-15T00:03:26;58.43;;;28.33;;
19278;SDS011;9773;47.062;15.446;2022-11-15T00:05:53;52.67;;;27.77;;
19278;SDS011;9773;47.062;15.446;2022-11-15T00:08:19;57.13;;;28.67;;
19278;SDS011;9773;47.062;15.446;2022-11-15T00:10:55;55.83;;;27.93;;
19278;SDS011;9773;47.062;15.446;2022-11-15T00:13:25;56.50;;;27.60;;
19278;SDS011;9773;47.062;15.446;2022-11-15T00:15:51;55.23;;;27.50;;
19278;SDS011;9773;47.062;15.446;2022-11-15T00:18:17;51.80;;;26.30;;
19278;SDS011;9773;47.062;15.446;2022-11-15T00:20:44;52.23;;;26.63;;
19278;SDS011;9773;47.062;15.446;2022-11-15T00:23:10;51.73;;;27.30;;
19278;SDS011;9773;47.062;15.446;2022-11-15T00:25:36;45.53;;;25.03;;
19278;SDS011;9773;47.062;15.446;2022-11-15T00:28:02;49.83;;;25.93;;
19278;SDS011;9773;47.062;15.446;2022-11-15T00:30:28;50.53;;;26.50;;
19278;SDS011;9773;47.062;15.446;2022-11-15T00:32:54;49.63;;;26.80;;
19278;SDS011;9773;47.062;15.446;2022-11-15T00:35:20;52.33;;;26.10;;
19278;SDS011;9773;47.062;15.446;2022-11-15T00:37:46;50.43;;;26.63;;
19278;SDS011;9773;47.062;15.446;2022-11-15T00:40:13;51.07;;;25.10;;
19278;SDS011;9773;47.062;15.446;2022-11-15T00:42:39;49.40;;;26.63;;
19278;SDS011;9773;47.062;15.446;2022-11-15T00:45:05;49.00;;;26.63;;
19278;SDS011;9773;47.062;15.446;2022-11-15T00:47:31;52.73;;;28.93;;
19278;SDS011;9773;47.062;15.446;2022-11-15T00:49:57;55.73;;;27.23;;
19278;SDS011;9773;47.062;15.446;2022-11-15T00:52:23;53.70;;;27.57;;
19278;SDS011;9773;47.062;15.446;2022-11-15T00:54:49;51.30;;;26.90;;
19278;SDS011;9773;47.062;15.446;2022-11-15T00:57:15;49.57;;;26.63;;
19278;SDS011;9773;47.062;15.446;2022-11-15T00:59:41;52.10;;;26.90;;
19278;SDS011;9773;47.062;15.446;2022-11-15T01:02:07;54.77;;;27.70;;
19278;SDS011;9773;47.062;15.446;2022-11-15T01:04:32;53.20;;;28.40;;
19278;SDS011;9773;47.062;15.446;2022-11-15T01:06:58;53.17;;;26.07;;
19278;SDS011;9773;47.062;15.446;2022-11-15T01:09:24;45.60;;;25.93;;
19278;SDS011;9773;47.062;15.446;2022-11-15T01:11:50;49.97;;;26.47;;
19278;SDS011;9773;47.062;15.446;2022-11-15T01:14:15;50.80;;;25.93;;
19278;SDS011;9773;47.062;15.446;2022-11-15T01:16:41;51.77;;;27.00;;
19278;SDS011;9773;47.062;15.446;2022-11-15T01:19:07;53.60;;;26.33;;
19278;SDS011;9773;47.062;15.446;2022-11-15T01:21:33;51.27;;;26.57;;
19278;SDS011;9773;47.062;15.446;2022-11-15T01:23:59;52.57;;;27.07;;
19278;SDS011;9773;47.062;15.446;2022-11-15T01:26:25;50.63;;;27.33;;
19278;SDS011;9773;47.062;15.446;2022-11-15T01:28:51;52.47;;;26.70;;
19278;SDS011;9773;47.062;15.446;2022-11-15T01:31:18;52.67;;;26.70;;
19278;SDS011;9773;47.062;15.446;2022-11-15T01:33:45;50.13;;;25.73;;
19278;SDS011;9773;47.062;15.446;2022-11-15T01:36:12;53.27;;;26.67;;
19278;SDS011;9773;47.062;15.446;2022-11-15T01:38:40;48.10;;;27.10;;
19278;SDS011;9773;47.062;15.446;2022-11-15T01:41:06;48.40;;;27.23;;
19278;SDS011;9773;47.062;15.446;2022-11-15T01:43:33;53.50;;;26.77;;
19278;SDS011;9773;47.062;15.446;2022-11-15T01:46:08;55.40;;;28.20;;
19278;SDS011;9773;47.062;15.446;2022-11-15T01:48:52;55.23;;;27.10;;
19278;SDS011;9773;47.062;15.446;2022-11-15T01:51:21;60.77;;;29.20;;
19278;SDS011;9773;47.062;15.446;2022-11-15T01:53:50;57.13;;;27.93;;
19278;SDS011;9773;47.062;15.446;2022-11-15T01:56:21;53.83;;;26.80;;
19278;SDS011;9773;47.062;15.446;2022-11-15T01:58:50;55.33;;;27.67;;
19278;SDS011;9773;47.062;15.446;2022-11-15T02:01:18;60.20;;;28.63;;
19278;SDS011;9773;47.062;15.446;2022-11-15T02:06:19;53.47;;;26.67;;
19278;SDS011;9773;47.062;15.446;2022-11-15T02:08:48;53.97;;;27.10;;
19278;SDS011;9773;47.062;15.446;2022-11-15T02:11:15;54.50;;;27.40;;
19278;SDS011;9773;47.062;15.446;2022-11-15T02:13:41;54.80;;;26.90;;
19278;SDS011;9773;47.062;15.446;2022-11-15T02:21:46;52.93;;;26.73;;
19278;SDS011;9773;47.062;15.446;2022-11-15T02:24:48;52.50;;;28.03;;
19278;SDS011;9773;47.062;15.446;2022-11-15T02:41:36;58.00;;;27.83;;
19278;SDS011;9773;47.062;15.446;2022-11-15T02:44:08;53.53;;;26.77;;
19278;SDS011;9773;47.062;15.446;2022-11-15T02:46:46;61.10;;;28.07;;
19278;SDS011;9773;47.062;15.446;2022-11-15T02:49:39;55.63;;;27.50;;
19278;SDS011;9773;47.062;15.446;2022-11-15T02:52:14;51.07;;;27.10;;
19278;SDS011;9773;47.062;15.446;2022-11-15T02:54:54;54.47;;;27.20;;
19278;SDS011;9773;47.062;15.446;2022-11-15T02:57:22;56.77;;;27.40;;
19278;SDS011;9773;47.062;15.446;2022-11-15T03:06:03;57.70;;;28.30;;
19278;SDS011;9773;47.062;15.446;2022-11-15T03:08:55;58.13;;;26.47;;
19278;SDS011;9773;47.062;15.446;2022-11-15T03:11:26;55.57;;;27.37;;
19278;SDS011;9773;47.062;15.446;2022-11-15T03:22:05;54.63;;;27.67;;
19278;SDS011;9773;47.062;15.446;2022-11-15T03:24:33;57.07;;;27.13;;
19278;SDS011;9773;47.062;15.446;2022-11-15T03:27:02;54.80;;;26.83;;
19278;SDS011;9773;47.062;15.446;2022-11-15T03:29:34;57.10;;;27.67;;
19278;SDS011;9773;47.062;15.446;2022-11-15T03:32:06;54.57;;;27.07;;
19278;SDS011;9773;47.062;15.446;2022-11-15T03:34:38;51.57;;;25.70;;
19278;SDS011;9773;47.062;15.446;2022-11-15T03:37:17;51.63;;;26.57;;
19278;SDS011;9773;47.062;15.446;2022-11-15T03:39:46;53.37;;;25.90;;
19278;SDS011;9773;47.062;15.446;2022-11-15T03:42:18;52.43;;;27.23;;
19278;SDS011;9773;47.062;15.446;2022-11-15T03:50:14;51.07;;;25.40;;
19278;SDS011;9773;47.062;15.446;2022-11-15T03:52:42;51.27;;;26.20;;
19278;SDS011;9773;47.062;15.446;2022-11-15T03:55:13;53.90;;;26.37;;
19278;SDS011;9773;47.062;15.446;2022-11-15T03:57:41;54.67;;;26.87;;
19278;SDS011;9773;47.062;15.446;2022-11-15T04:00:08;53.40;;;26.27;;
19278;SDS011;9773;47.062;15.446;2022-11-15T04:02:34;52.77;;;26.73;;
19278;SDS011;9773;47.062;15.446;2022-11-15T04:05:00;50.03;;;26.67;;
19278;SDS011;9773;47.062;15.446;2022-11-15T04:07:26;50.33;;;25.80;;
19278;SDS011;9773;47.062;15.446;2022-11-15T04:09:51;55.00;;;27.17;;
19278;SDS011;9773;47.062;15.446;2022-11-15T04:12:34;46.37;;;25.63;;
19278;SDS011;9773;47.062;15.446;2022-11-15T04:15:13;49.97;;;26.33;;
19278;SDS011;9773;47.062;15.446;2022-11-15T04:20:13;54.97;;;27.30;;
19278;SDS011;9773;47.062;15.446;2022-11-15T04:23:07;53.70;;;28.60;;
19278;SDS011;9773;47.062;15.446;2022-11-15T04:25:59;55.90;;;27.77;;
19278;SDS011;9773;47.062;15.446;2022-11-15T04:28:27;60.57;;;28.90;;
19278;SDS011;9773;47.062;15.446;2022-11-15T04:30:53;58.20;;;27.50;;
19278;SDS011;9773;47.062;15.446;2022-11-15T04:33:19;56.17;;;27.87;;
19278;SDS011;9773;47.062;15.446;2022-11-15T04:35:46;57.83;;;28.90;;
19278;SDS011;9773;47.062;15.446;2022-11-15T04:38:32;55.30;;;27.97;;
19278;SDS011;9773;47.062;15.446;2022-11-15T04:40:58;55.60;;;26.87;;
19278;SDS011;9773;47.062;15.446;2022-11-15T04:43:23;56.63;;;28.73;;
19278;SDS011;9773;47.062;15.446;2022-11-15T04:45:49;58.80;;;28.60;;
19278;SDS011;9773;47.062;15.446;2022-11-15T04:48:15;60.30;;;28.90;;
19278;SDS011;9773;47.062;15.446;2022-11-15T04:50:41;59.13;;;29.23;;
19278;SDS011;9773;47.062;15.446;2022-11-15T04:53:06;68.60;;;28.70;;
19278;SDS011;9773;47.062;15.446;2022-11-15T04:55:32;65.77;;;28.20;;
19278;SDS011;9773;47.062;15.446;2022-11-15T04:57:59;53.57;;;26.70;;
19278;SDS011;9773;47.062;15.446;2022-11-15T05:00:26;56.43;;;26.90;;
19278;SDS011;9773;47.062;15.446;2022-11-15T05:02:52;55.30;;;27.13;;
19278;SDS011;9773;47.062;15.446;2022-11-15T05:05:37;55.67;;;27.30;;
19278;SDS011;9773;47.062;15.446;2022-11-15T05:08:03;55.93;;;28.07;;
19278;SDS011;9773;47.062;15.446;2022-11-15T05:10:29;54.10;;;27.30;;
19278;SDS011;9773;47.062;15.446;2022-11-15T05:12:55;55.60;;;27.00;;
19278;SDS011;9773;47.062;15.446;2022-11-15T05:15:21;62.10;;;28.63;;
19278;SDS011;9773;47.062;15.446;2022-11-15T05:17:47;50.10;;;25.90;;
19278;SDS011;9773;47.062;15.446;2022-11-15T05:20:13;54.27;;;26.27;;
19278;SDS011;9773;47.062;15.446;2022-11-15T05:22:39;55.80;;;27.33;;
19278;SDS011;9773;47.062;15.446;2022-11-15T05:25:05;55.27;;;27.67;;
19278;SDS011;9773;47.062;15.446;2022-11-15T05:27:32;59.13;;;28.30;;
19278;SDS011;9773;47.062;15.446;2022-11-15T05:29:59;62.67;;;30.20;;
19278;SDS011;9773;47.062;15.446;2022-11-15T05:32:25;59.80;;;28.53;;
19278;SDS011;9773;47.062;15.446;2022-11-15T05:34:51;60.60;;;26.67;;
19278;SDS011;9773;47.062;15.446;2022-11-15T05:37:17;62.87;;;27.03;;
19278;SDS011;9773;47.062;15.446;2022-11-15T05:39:43;64.03;;;28.53;;
19278;SDS011;9773;47.062;15.446;2022-11-15T05:42:09;62.53;;;28.47;;
19278;SDS011;9773;47.062;15.446;2022-11-15T05:44:41;65.07;;;29.13;;
19278;SDS011;9773;47.062;15.446;2022-11-15T05:47:11;60.93;;;27.67;;
19278;SDS011;9773;47.062;15.446;2022-11-15T05:49:42;56.20;;;27.47;;
19278;SDS011;9773;47.062;15.446;2022-11-15T05:52:10;58.47;;;27.97;;
19278;SDS011;9773;47.062;15.446;2022-11-15T05:54:40;69.03;;;29.50;;
19278;SDS011;9773;47.062;15.446;2022-11-15T05:57:06;64.93;;;28.60;;
19278;SDS011;9773;47.062;15.446;2022-11-15T05:59:33;66.87;;;28.20;;
19278;SDS011;9773;47.062;15.446;2022-11-15T06:01:59;59.03;;;27.00;;
19278;SDS011;9773;47.062;15.446;2022-11-15T06:04:25;64.60;;;28.03;;
19278;SDS011;9773;47.062;15.446;2022-11-15T06:06:51;57.53;;;26.67;;
19278;SDS011;9773;47.062;15.446;2022-11-15T06:09:17;62.30;;;26.37;;
19278;SDS011;9773;47.062;15.446;2022-11-15T06:11:42;64.40;;;28.73;;
19278;SDS011;9773;47.062;15.446;2022-11-15T06:14:08;56.67;;;26.83;;
19278;SDS011;9773;47.062;15.446;2022-11-15T06:16:34;60.37;;;27.07;;
19278;SDS011;9773;47.062;15.446;2022-11-15T06:19:00;61.47;;;27.27;;
19278;SDS011;9773;47.062;15.446;2022-11-15T06:21:27;54.73;;;25.20;;
19278;SDS011;9773;47.062;15.446;2022-11-15T06:23:54;58.77;;;25.70;;
19278;SDS011;9773;47.062;15.446;2022-11-15T06:26:20;57.47;;;26.60;;
19278;SDS011;9773;47.062;15.446;2022-11-15T06:28:46;56.40;;;25.67;;
19278;SDS011;9773;47.062;15.446;2022-11-15T06:31:12;55.93;;;26.93;;
19278;SDS011;9773;47.062;15.446;2022-11-15T06:33:38;52.80;;;25.93;;
19278;SDS011;9773;47.062;15.446;2022-11-15T06:36:04;53.53;;;25.37;;
19278;SDS011;9773;47.062;15.446;2022-11-15T06:38:32;53.17;;;24.00;;
19278;SDS011;9773;47.062;15.446;2022-11-15T06:41:02;53.50;;;24.47;;
19278;SDS011;9773;47.062;15.446;2022-11-15T06:43:32;43.97;;;23.37;;
19278;SDS011;9773;47.062;15.446;2022-11-15T06:46:00;49.27;;;25.33;;
19278;SDS011;9773;47.062;15.446;2022-11-15T06:48:27;46.93;;;23.53;;
19278;SDS011;9773;47.062;15.446;2022-11-15T06:50:54;51.07;;;24.17;;
19278;SDS011;9773;47.062;15.446;2022-11-15T06:53:21;47.63;;;23.20;;
19278;SDS011;9773;47.062;15.446;2022-11-15T06:55:47;47.67;;;23.17;;
19278;SDS011;9773;47.062;15.446;2022-11-15T06:58:13;43.83;;;22.07;;
19278;SDS011;9773;47.062;15.446;2022-11-15T07:00:39;47.93;;;22.77;;
19278;SDS011;9773;47.062;15.446;2022-11-15T07:03:05;48.77;;;23.33;;
19278;SDS011;9773;47.062;15.446;2022-11-15T07:05:31;44.87;;;22.77;;
19278;SDS011;9773;47.062;15.446;2022-11-15T07:07:57;46.90;;;21.77;;
19278;SDS011;9773;47.062;15.446;2022-11-15T07:10:24;42.07;;;21.07;;
19278;SDS011;9773;47.062;15.446;2022-11-15T07:12:51;40.97;;;21.07;;
19278;SDS011;9773;47.062;15.446;2022-11-15T07:15:18;43.33;;;23.23;;
19278;SDS011;9773;47.062;15.446;2022-11-15T07:17:44;40.67;;;21.23;;
19278;SDS011;9773;47.062;15.446;2022-11-15T07:20:11;45.50;;;22.47;;
19278;SDS011;9773;47.062;15.446;2022-11-15T07:22:38;44.87;;;22.73;;
19278;SDS011;9773;47.062;15.446;2022-11-15T07:25:05;45.23;;;21.87;;
19278;SDS011;9773;47.062;15.446;2022-11-15T07:27:31;41.37;;;20.93;;
19278;SDS011;9773;47.062;15.446;2022-11-15T07:29:57;48.63;;;22.53;;
19278;SDS011;9773;47.062;15.446;2022-11-15T07:32:22;46.20;;;21.60;;
19278;SDS011;9773;47.062;15.446;2022-11-15T07:34:48;47.33;;;22.00;;
19278;SDS011;9773;47.062;15.446;2022-11-15T07:37:14;48.80;;;22.03;;
19278;SDS011;9773;47.062;15.446;2022-11-15T07:39:41;47.20;;;22.37;;
19278;SDS011;9773;47.062;15.446;2022-11-15T07:42:07;48.43;;;21.97;;
19278;SDS011;9773;47.062;15.446;2022-11-15T07:44:51;46.43;;;23.27;;
19278;SDS011;9773;47.062;15.446;2022-11-15T07:47:17;51.40;;;23.47;;
19278;SDS011;9773;47.062;15.446;2022-11-15T07:49:43;50.17;;;23.17;;
19278;SDS011;9773;47.062;15.446;2022-11-15T07:52:11;54.27;;;25.10;;
19278;SDS011;9773;47.062;15.446;2022-11-15T07:54:37;57.80;;;26.13;;
19278;SDS011;9773;47.062;15.446;2022-11-15T07:57:04;55.13;;;24.13;;
19278;SDS011;9773;47.062;15.446;2022-11-15T07:59:30;56.03;;;26.77;;
19278;SDS011;9773;47.062;15.446;2022-11-15T08:01:56;53.30;;;25.43;;
19278;SDS011;9773;47.062;15.446;2022-11-15T08:04:22;53.00;;;25.87;;
19278;SDS011;9773;47.062;15.446;2022-11-15T08:06:48;53.13;;;25.37;;
19278;SDS011;9773;47.062;15.446;2022-11-15T08:09:14;51.70;;;24.27;;
19278;SDS011;9773;47.062;15.446;2022-11-15T08:11:39;53.13;;;25.40;;
19278;SDS011;9773;47.062;15.446;2022-11-15T08:14:05;56.87;;;24.50;;
19278;SDS011;9773;47.062;15.446;2022-11-15T08:16:31;53.17;;;24.00;;
19278;SDS011;9773;47.062;15.446;2022-11-15T08:18:57;57.47;;;26.00;;
19278;SDS011;9773;47.062;15.446;2022-11-15T08:21:23;51.90;;;24.60;;
19278;SDS011;9773;47.062;15.446;2022-11-15T08:23:49;57.40;;;25.37;;
19278;SDS011;9773;47.062;15.446;2022-11-15T08:26:15;55.97;;;24.87;;
19278;SDS011;9773;47.062;15.446;2022-11-15T08:28:41;53.30;;;24.90;;
19278;SDS011;9773;47.062;15.446;2022-11-15T08:31:12;46.43;;;23.50;;
19278;SDS011;9773;47.062;15.446;2022-11-15T08:33:43;48.17;;;23.67;;
19278;SDS011;9773;47.062;15.446;2022-11-15T08:36:13;42.00;;;23.00;;
19278;SDS011;9773;47.062;15.446;2022-11-15T08:38:41;47.77;;;24.60;;
19278;SDS011;9773;47.062;15.446;2022-11-15T08:41:09;48.87;;;23.83;;
19278;SDS011;9773;47.062;15.446;2022-11-15T08:43:45;56.83;;;24.63;;
19278;SDS011;9773;47.062;15.446;2022-11-15T08:46:11;55.00;;;24.37;;
19278;SDS011;9773;47.062;15.446;2022-11-15T08:48:38;46.40;;;23.27;;
19278;SDS011;9773;47.062;15.446;2022-11-15T08:51:04;48.57;;;23.30;;
19278;SDS011;9773;47.062;15.446;2022-11-15T08:53:32;43.43;;;22.53;;
19278;SDS011;9773;47.062;15.446;2022-11-15T08:55:58;42.07;;;22.40;;
19278;SDS011;9773;47.062;15.446;2022-11-15T08:58:24;46.07;;;22.20;;
19278;SDS011;9773;47.062;15.446;2022-11-15T09:00:50;45.77;;;24.10;;
19278;SDS011;9773;47.062;15.446;2022-11-15T09:03:16;47.97;;;23.20;;
19278;SDS011;9773;47.062;15.446;2022-11-15T09:05:41;43.23;;;22.90;;
19278;SDS011;9773;47.062;15.446;2022-11-15T09:08:08;43.53;;;23.20;;
19278;SDS011;9773;47.062;15.446;2022-11-15T09:10:34;44.57;;;22.43;;
19278;SDS011;9773;47.062;15.446;2022-11-15T09:13:00;49.17;;;24.57;;
19278;SDS011;9773;47.062;15.446;2022-11-15T09:15:26;48.67;;;24.57;;
19278;SDS011;9773;47.062;15.446;2022-11-15T09:17:51;54.67;;;25.77;;
19278;SDS011;9773;47.062;15.446;2022-11-15T09:20:17;49.47;;;25.37;;
19278;SDS011;9773;47.062;15.446;2022-11-15T09:22:43;53.50;;;25.63;;
19278;SDS011;9773;47.062;15.446;2022-11-15T09:25:09;49.80;;;24.50;;
19278;SDS011;9773;47.062;15.446;2022-11-15T09:27:35;48.30;;;24.30;;
19278;SDS011;9773;47.062;15.446;2022-11-15T09:30:01;59.97;;;26.30;;
19278;SDS011;9773;47.062;15.446;2022-11-15T09:32:30;53.47;;;25.87;;
19278;SDS011;9773;47.062;15.446;2022-11-15T09:34:56;49.63;;;24.93;;
19278;SDS011;9773;47.062;15.446;2022-11-15T09:37:22;52.07;;;24.93;;
19278;SDS011;9773;47.062;15.446;2022-11-15T09:39:48;57.47;;;26.33;;
19278;SDS011;9773;47.062;15.446;2022-11-15T09:47:47;56.50;;;26.10;;
19278;SDS011;9773;47.062;15.446;2022-11-15T09:50:27;52.33;;;25.60;;
19278;SDS011;9773;47.062;15.446;2022-11-15T09:53:01;53.87;;;25.10;;
19278;SDS011;9773;47.062;15.446;2022-11-15T09:55:33;56.93;;;25.77;;
19278;SDS011;9773;47.062;15.446;2022-11-15T09:58:15;53.37;;;25.70;;
19278;SDS011;9773;47.062;15.446;2022-11-15T10:00:51;51.53;;;25.20;;
19278;SDS011;9773;47.062;15.446;2022-11-15T10:06:01;55.00;;;25.17;;
19278;SDS011;9773;47.062;15.446;2022-11-15T10:11:20;54.50;;;25.33;;
19278;SDS011;9773;47.062;15.446;2022-11-15T10:13:50;51.40;;;25.00;;
19278;SDS011;9773;47.062;15.446;2022-11-15T10:16:25;58.03;;;26.17;;
19278;SDS011;9773;47.062;15.446;2022-11-15T10:24:28;56.63;;;26.43;;
19278;SDS011;9773;47.062;15.446;2022-11-15T10:26:59;53.97;;;27.10;;
19278;SDS011;9773;47.062;15.446;2022-11-15T10:29:26;56.50;;;26.17;;
19278;SDS011;9773;47.062;15.446;2022-11-15T10:31:51;51.30;;;25.17;;
19278;SDS011;9773;47.062;15.446;2022-11-15T10:34:21;52.23;;;26.00;;
19278;SDS011;9773;47.062;15.446;2022-11-15T10:36:58;55.33;;;25.93;;
19278;SDS011;9773;47.062;15.446;2022-11-15T10:39:27;45.30;;;23.37;;
19278;SDS011;9773;47.062;15.446;2022-11-15T10:41:53;44.43;;;23.07;;
19278;SDS011;9773;47.062;15.446;2022-11-15T10:44:20;51.53;;;24.57;;
19278;SDS011;9773;47.062;15.446;2022-11-15T10:49:29;48.73;;;23.10;;
19278;SDS011;9773;47.062;15.446;2022-11-15T10:54:43;46.13;;;21.77;;
19278;SDS011;9773;47.062;15.446;2022-11-15T10:57:16;37.63;;;20.13;;
19278;SDS011;9773;47.062;15.446;2022-11-15T10:59:50;37.63;;;20.23;;
19278;SDS011;9773;47.062;15.446;2022-11-15T11:02:31;33.33;;;18.13;;
19278;SDS011;9773;47.062;15.446;2022-11-15T11:07:58;30.93;;;17.77;;
19278;SDS011;9773;47.062;15.446;2022-11-15T11:10:54;29.20;;;17.00;;
19278;SDS011;9773;47.062;15.446;2022-11-15T11:13:22;33.03;;;19.10;;
19278;SDS011;9773;47.062;15.446;2022-11-15T11:15:54;30.93;;;18.57;;
19278;SDS011;9773;47.062;15.446;2022-11-15T11:18:35;30.67;;;18.33;;
19278;SDS011;9773;47.062;15.446;2022-11-15T11:21:11;33.37;;;18.57;;
19278;SDS011;9773;47.062;15.446;2022-11-15T11:23:52;36.10;;;20.37;;
19278;SDS011;9773;47.062;15.446;2022-11-15T11:40:32;28.80;;;17.77;;
19278;SDS011;9773;47.062;15.446;2022-11-15T11:46:12;33.83;;;19.37;;
19278;SDS011;9773;47.062;15.446;2022-11-15T11:48:43;30.87;;;19.20;;
19278;SDS011;9773;47.062;15.446;2022-11-15T11:52:20;33.93;;;18.17;;
19278;SDS011;9773;47.062;15.446;2022-11-15T11:57:13;28.47;;;17.17;;
19278;SDS011;9773;47.062;15.446;2022-11-15T11:59:55;27.77;;;17.87;;
19278;SDS011;9773;47.062;15.446;2022-11-15T12:08:03;29.33;;;17.07;;
19278;SDS011;9773;47.062;15.446;2022-11-15T12:10:40;27.17;;;16.80;;
19278;SDS011;9773;47.062;15.446;2022-11-15T12:13:19;28.73;;;17.10;;
19278;SDS011;9773;47.062;15.446;2022-11-15T12:18:36;29.30;;;17.57;;
19278;SDS011;9773;47.062;15.446;2022-11-15T12:21:49;26.37;;;17.00;;
19278;SDS011;9773;47.062;15.446;2022-11-15T12:24:25;28.13;;;17.40;;
19278;SDS011;9773;47.062;15.446;2022-11-15T12:26:57;25.73;;;16.43;;
19278;SDS011;9773;47.062;15.446;2022-11-15T12:29:41;26.03;;;16.17;;
19278;SDS011;9773;47.062;15.446;2022-11-15T12:32:17;24.00;;;16.33;;
19278;SDS011;9773;47.062;15.446;2022-11-15T12:34:54;23.57;;;15.90;;
19278;SDS011;9773;47.062;15.446;2022-11-15T12:42:39;26.43;;;16.63;;
19278;SDS011;9773;47.062;15.446;2022-11-15T13:06:45;28.60;;;16.47;;
19278;SDS011;9773;47.062;15.446;2022-11-15T13:12:04;22.70;;;14.57;;
19278;SDS011;9773;47.062;15.446;2022-11-15T13:14:40;26.03;;;15.47;;
19278;SDS011;9773;47.062;15.446;2022-11-15T13:17:50;23.97;;;15.30;;
19278;SDS011;9773;47.062;15.446;2022-11-15T13:22:26;22.20;;;14.40;;
19278;SDS011;9773;47.062;15.446;2022-11-15T13:25:15;26.00;;;14.40;;
19278;SDS011;9773;47.062;15.446;2022-11-15T13:27:45;22.53;;;14.40;;
19278;SDS011;9773;47.062;15.446;2022-11-15T13:30:18;21.00;;;14.37;;
19278;SDS011;9773;47.062;15.446;2022-11-15T13:32:47;23.97;;;14.67;;
19278;SDS011;9773;47.062;15.446;2022-11-15T13:35:23;22.50;;;15.33;;
19278;SDS011;9773;47.062;15.446;2022-11-15T13:37:54;21.03;;;14.93;;
19278;SDS011;9773;47.062;15.446;2022-11-15T13:40:24;20.27;;;14.10;;
19278;SDS011;9773;47.062;15.446;2022-11-15T13:42:58;26.23;;;16.73;;
19278;SDS011;9773;47.062;15.446;2022-11-15T13:45:24;23.77;;;15.17;;
19278;SDS011;9773;47.062;15.446;2022-11-15T13:47:55;22.47;;;16.17;;
19278;SDS011;9773;47.062;15.446;2022-11-15T13:50:29;24.67;;;15.37;;
19278;SDS011;9773;47.062;15.446;2022-11-15T13:53:01;22.90;;;15.27;;
19278;SDS011;9773;47.062;15.446;2022-11-15T13:55:28;22.77;;;15.57;;
19278;SDS011;9773;47.062;15.446;2022-11-15T13:57:58;21.73;;;14.80;;
19278;SDS011;9773;47.062;15.446;2022-11-15T14:00:43;24.47;;;15.33;;
19278;SDS011;9773;47.062;15.446;2022-11-15T14:08:37;18.87;;;12.67;;
19278;SDS011;9773;47.062;15.446;2022-11-15T14:11:23;21.17;;;13.90;;
19278;SDS011;9773;47.062;15.446;2022-11-15T14:19:01;19.83;;;13.30;;
19278;SDS011;9773;47.062;15.446;2022-11-15T14:21:29;16.33;;;12.17;;
19278;SDS011;9773;47.062;15.446;2022-11-15T14:24:17;19.50;;;12.87;;
19278;SDS011;9773;47.062;15.446;2022-11-15T14:26:46;20.53;;;12.77;;
19278;SDS011;9773;47.062;15.446;2022-11-15T14:29:24;17.90;;;12.60;;
19278;SDS011;9773;47.062;15.446;2022-11-15T14:31:52;18.20;;;12.73;;
19278;SDS011;9773;47.062;15.446;2022-11-15T14:34:37;18.47;;;12.73;;
19278;SDS011;9773;47.062;15.446;2022-11-15T14:37:03;18.80;;;12.63;;
19278;SDS011;9773;47.062;15.446;2022-11-15T14:39:29;19.43;;;12.43;;
19278;SDS011;9773;47.062;15.446;2022-11-15T14:41:55;18.37;;;12.20;;
19278;SDS011;9773;47.062;15.446;2022-11-15T14:44:21;19.53;;;12.83;;
19278;SDS011;9773;47.062;15.446;2022-11-15T14:46:47;15.53;;;11.67;;
19278;SDS011;9773;47.062;15.446;2022-11-15T14:49:13;17.03;;;12.30;;
19278;SDS011;9773;47.062;15.446;2022-11-15T14:51:40;20.37;;;12.77;;
19278;SDS011;9773;47.062;15.446;2022-11-15T14:54:09;19.27;;;13.23;;
19278;SDS011;9773;47.062;15.446;2022-11-15T14:56:35;18.93;;;12.73;;
19278;SDS011;9773;47.062;15.446;2022-11-15T14:59:01;17.13;;;12.53;;
19278;SDS011;9773;47.062;15.446;2022-11-15T15:01:27;17.27;;;12.47;;
19278;SDS011;9773;47.062;15.446;2022-11-15T15:03:53;15.27;;;11.57;;
19278;SDS011;9773;47.062;15.446;2022-11-15T15:06:22;16.23;;;11.90;;
19278;SDS011;9773;47.062;15.446;2022-11-15T15:08:48;16.43;;;11.70;;
19278;SDS011;9773;47.062;15.446;2022-11-15T15:11:18;20.30;;;12.87;;
19278;SDS011;9773;47.062;15.446;2022-11-15T15:13:50;15.03;;;12.13;;
19278;SDS011;9773;47.062;15.446;2022-11-15T15:16:17;16.83;;;11.93;;
19278;SDS011;9773;47.062;15.446;2022-11-15T15:18:43;18.77;;;13.13;;
19278;SDS011;9773;47.062;15.446;2022-11-15T15:21:25;18.33;;;12.40;;
19278;SDS011;9773;47.062;15.446;2022-11-15T15:23:52;17.37;;;11.80;;
19278;SDS011;9773;47.062;15.446;2022-11-15T15:26:22;21.03;;;11.97;;
19278;SDS011;9773;47.062;15.446;2022-11-15T15:29:01;16.00;;;11.93;;
19278;SDS011;9773;47.062;15.446;2022-11-15T15:31:27;17.40;;;12.03;;
19278;SDS011;9773;47.062;15.446;2022-11-15T15:33:53;18.70;;;12.33;;
19278;SDS011;9773;47.062;15.446;2022-11-15T15:36:18;15.57;;;11.23;;
19278;SDS011;9773;47.062;15.446;2022-11-15T15:38:44;16.67;;;12.00;;
19278;SDS011;9773;47.062;15.446;2022-11-15T15:41:12;16.83;;;11.57;;
19278;SDS011;9773;47.062;15.446;2022-11-15T15:43:39;15.70;;;11.27;;
19278;SDS011;9773;47.062;15.446;2022-11-15T15:46:12;15.47;;;11.27;;
19278;SDS011;9773;47.062;15.446;2022-11-15T15:48:40;18.37;;;12.20;;
19278;SDS011;9773;47.062;15.446;2022-11-15T15:51:06;19.00;;;12.87;;
19278;SDS011;9773;47.062;15.446;2022-11-15T15:53:32;16.00;;;11.33;;
19278;SDS011;9773;47.062;15.446;2022-11-15T15:55:59;16.87;;;12.07;;
19278;SDS011;9773;47.062;15.446;2022-11-15T15:58:25;17.03;;;11.37;;
19278;SDS011;9773;47.062;15.446;2022-11-15T16:00:51;15.53;;;11.00;;
19278;SDS011;9773;47.062;15.446;2022-11-15T16:03:17;18.93;;;12.00;;
19278;SDS011;9773;47.062;15.446;2022-11-15T16:05:43;17.83;;;11.33;;
19278;SDS011;9773;47.062;15.446;2022-11-15T16:08:19;15.70;;;11.43;;
19278;SDS011;9773;47.062;15.446;2022-11-15T16:10:46;13.97;;;10.87;;
19278;SDS011;9773;47.062;15.446;2022-11-15T16:13:12;18.47;;;12.13;;
19278;SDS011;9773;47.062;15.446;2022-11-15T16:15:38;15.73;;;11.10;;
19278;SDS011;9773;47.062;15.446;2022-11-15T16:18:05;15.53;;;11.80;;
19278;SDS011;9773;47.062;15.446;2022-11-15T16:20:36;16.07;;;11.33;;
19278;SDS011;9773;47.062;15.446;2022-11-15T16:23:06;15.87;;;11.13;;
19278;SDS011;9773;47.062;15.446;2022-11-15T16:25:34;17.10;;;11.70;;
19278;SDS011;9773;47.062;15.446;2022-11-15T16:28:26;17.17;;;11.60;;
19278;SDS011;9773;47.062;15.446;2022-11-15T16:31:14;18.83;;;12.70;;
19278;SDS011;9773;47.062;15.446;2022-11-15T16:33:43;17.83;;;12.07;;
19278;SDS011;9773;47.062;15.446;2022-11-15T16:36:23;19.13;;;12.67;;
19278;SDS011;9773;47.062;15.446;2022-11-15T16:38:50;17.63;;;12.23;;
19278;SDS011;9773;47.062;15.446;2022-11-15T16:41:16;19.87;;;12.70;;
19278;SDS011;9773;47.062;15.446;2022-11-15T16:43:46;17.17;;;12.37;;
19278;SDS011;9773;47.062;15.446;2022-11-15T16:46:22;23.53;;;14.60;;
19278;SDS011;9773;47.062;15.446;2022-11-15T16:48:51;18.30;;;12.80;;
19278;SDS011;9773;47.062;15.446;2022-11-15T16:51:20;20.07;;;13.33;;
19278;SDS011;9773;47.062;15.446;2022-11-15T16:53:47;18.30;;;12.17;;
19278;SDS011;9773;47.062;15.446;2022-11-15T16:56:17;20.20;;;13.73;;